Time;durP1;ratioP1;P1;durP2;ratioP2;P2;SDS_P1;SDS_P2;PMS_P1;PMS_P2;Temp;Humidity;BMP_temperature;BMP_pressure;BME280_temperature;BME280_humidity;BME280_pressure;Samples;Min_cycle;Max_cycle;Signal;HPM_P1;HPM_P2
2023/12/19 00:01:47;;;;;;;10.60;6.00;;;1.50;99.90;;;1.85;100.00;99272.78;5054310;28;20477;-76
2023/12/19 00:04:16;;;;;;;9.33;6.40;;;1.40;99.90;;;1.84;100.00;99261.66;5054300;28;20490;-76
2023/12/19 00:06:44;;;;;;;10.60;5.83;;;1.50;99.90;;;1.82;100.00;99257.53;5052947;28;20489;-76
2023/12/19 00:09:13;;;;;;;11.57;6.23;;;1.30;99.90;;;1.83;100.00;99260.03;5052682;28;20521;-77
2023/12/19 00:11:42;;;;;;;15.23;7.20;;;1.40;99.90;;;1.85;100.00;99253.00;5054893;28;20518;-76
2023/12/19 00:14:10;;;;;;;11.30;7.03;;;1.30;99.90;;;1.90;100.00;99260.44;5052270;28;20484;-76
2023/12/19 00:16:39;;;;;;;12.87;7.00;;;1.50;99.90;;;1.87;100.00;99263.22;5054284;28;20465;-76
2023/12/19 00:19:09;;;;;;;13.17;7.47;;;1.50;99.90;;;1.86;100.00;99259.00;5052205;28;20471;-76
2023/12/19 00:21:38;;;;;;;13.13;7.10;;;1.50;99.90;;;1.84;100.00;99260.84;5054760;28;20656;-76
2023/12/19 00:24:06;;;;;;;13.30;7.23;;;1.30;99.90;;;1.80;100.00;99264.56;5054392;28;20459;-76
2023/12/19 00:26:35;;;;;;;13.67;7.40;;;1.30;99.90;;;1.80;100.00;99257.66;5054160;28;20478;-76
2023/12/19 00:29:04;;;;;;;9.10;6.00;;;1.30;99.90;;;1.84;100.00;99260.84;5056039;28;20835;-76
2023/12/19 00:31:33;;;;;;;12.73;7.20;;;1.40;99.90;;;1.87;100.00;99270.97;5053485;28;20459;-76
2023/12/19 00:34:01;;;;;;;15.77;7.47;;;1.40;99.90;;;1.81;100.00;99277.34;5051830;28;20462;-76
2023/12/19 00:36:31;;;;;;;17.57;7.70;;;1.40;99.90;;;1.83;100.00;99266.94;5052508;28;20517;-76
2023/12/19 00:39:02;;;;;;;13.93;7.83;;;1.50;99.90;;;1.85;100.00;99283.13;5052397;28;20498;-76
2023/12/19 00:41:31;;;;;;;14.83;7.23;;;1.50;99.90;;;1.82;100.00;99291.06;5052731;28;20833;-76
2023/12/19 00:44:00;;;;;;;21.30;8.13;;;1.50;99.90;;;1.78;100.00;99279.28;5054435;28;20517;-76
2023/12/19 00:46:28;;;;;;;11.00;6.73;;;1.50;99.90;;;1.75;100.00;99269.19;5052335;28;20471;-76
2023/12/19 00:48:57;;;;;;;13.80;7.30;;;1.40;99.90;;;1.77;100.00;99265.56;5053662;28;20516;-76
2023/12/19 00:51:25;;;;;;;8.90;6.00;;;1.30;99.90;;;1.75;100.00;99266.59;5054072;28;20541;-76
2023/12/19 00:53:55;;;;;;;11.13;6.03;;;1.20;99.90;;;1.74;100.00;99275.25;5052095;28;20459;-76
2023/12/19 00:56:24;;;;;;;13.97;7.97;;;1.30;99.90;;;1.80;100.00;99280.84;5052315;28;20943;-76
2023/12/19 00:58:53;;;;;;;12.97;7.40;;;1.30;99.90;;;1.75;100.00;99275.16;5052983;28;20453;-76
2023/12/19 01:01:24;;;;;;;11.30;6.97;;;1.20;99.90;;;1.77;100.00;99269.91;5054722;28;20479;-76
2023/12/19 01:03:53;;;;;;;12.03;6.07;;;1.20;99.90;;;1.78;100.00;99262.06;5052963;28;21053;-76
2023/12/19 01:06:21;;;;;;;11.17;6.80;;;1.30;99.90;;;1.71;100.00;99265.97;5052626;28;20463;-76
2023/12/19 01:08:50;;;;;;;11.33;6.70;;;1.40;99.90;;;1.73;100.00;99259.00;5051138;28;20492;-76
2023/12/19 01:11:20;;;;;;;11.90;6.90;;;1.30;99.90;;;1.73;100.00;99260.75;5053529;28;20956;-76
2023/12/19 01:13:49;;;;;;;12.23;7.27;;;1.30;99.90;;;1.69;100.00;99264.44;5052254;28;20472;-76
2023/12/19 01:16:17;;;;;;;12.00;6.53;;;1.30;99.90;;;1.67;100.00;99279.16;5056058;28;20473;-76
2023/12/19 01:18:46;;;;;;;9.80;6.03;;;1.30;99.90;;;1.68;100.00;99273.91;5052833;28;20758;-76
2023/12/19 01:21:14;;;;;;;9.90;6.03;;;1.30;99.90;;;1.59;100.00;99265.97;5052128;28;20483;-75
2023/12/19 01:23:43;;;;;;;9.40;6.20;;;1.30;99.90;;;1.61;100.00;99279.56;5051664;28;20875;-76
2023/12/19 01:26:11;;;;;;;10.87;5.80;;;1.30;99.90;;;1.45;100.00;99278.00;5053247;28;21203;-77
2023/12/19 01:28:52;;;;;;;8.90;5.60;;;1.20;99.90;;;1.47;100.00;99278.72;5051666;28;21551;-77
2023/12/19 01:31:21;;;;;;;7.60;4.93;;;1.20;99.90;;;1.45;100.00;99280.59;5052470;28;20462;-76
2023/12/19 01:33:49;;;;;;;10.07;6.03;;;1.20;99.90;;;1.47;100.00;99272.75;5053053;28;20466;-76
2023/12/19 01:36:18;;;;;;;9.43;5.57;;;1.20;99.90;;;1.46;100.00;99269.34;5054209;28;20481;-76
2023/12/19 01:38:46;;;;;;;8.90;5.63;;;1.00;99.90;;;1.46;100.00;99271.91;5052125;28;20478;-80
2023/12/19 01:41:15;;;;;;;8.90;5.73;;;1.00;99.90;;;1.44;100.00;99272.94;5053206;28;20468;-76
2023/12/19 01:43:44;;;;;;;10.80;6.03;;;1.00;99.90;;;1.40;100.00;99272.31;5053154;28;20463;-76
2023/12/19 01:46:18;;;;;;;7.20;5.17;;;0.90;99.90;;;1.36;100.00;99265.72;5050282;28;21000;-76
2023/12/19 01:48:47;;;;;;;9.00;5.00;;;0.80;99.90;;;1.35;100.00;99261.50;5053865;28;20583;-76
2023/12/19 01:51:16;;;;;;;15.67;6.00;;;0.80;99.90;;;1.32;100.00;99256.53;5053500;28;20565;-76
2023/12/19 01:53:48;;;;;;;8.10;5.40;;;0.70;99.90;;;1.32;100.00;99246.22;5051731;28;20466;-76
2023/12/19 01:56:20;;;;;;;5.83;4.20;;;0.80;99.90;;;1.30;100.00;99249.81;5052983;28;20466;-76
2023/12/19 01:58:49;;;;;;;6.60;4.53;;;0.90;99.90;;;1.34;100.00;99251.28;5053047;28;21007;-76
2023/12/19 02:01:21;;;;;;;9.67;5.37;;;0.80;99.90;;;1.32;100.00;99264.25;5053566;28;20468;-76
2023/12/19 02:03:50;;;;;;;6.17;3.70;;;0.90;99.90;;;1.27;100.00;99294.66;5053316;28;20451;-76
2023/12/19 02:06:19;;;;;;;9.10;4.97;;;0.90;99.90;;;1.16;100.00;99309.94;5053322;28;20945;-76
2023/12/19 02:08:50;;;;;;;6.80;4.77;;;0.90;99.90;;;1.23;100.00;99308.66;5050630;28;20592;-76
2023/12/19 02:11:19;;;;;;;7.27;4.47;;;0.80;99.90;;;1.19;100.00;99299.44;5056470;28;20896;-77
2023/12/19 02:13:48;;;;;;;6.83;4.73;;;0.80;99.90;;;1.17;100.00;99297.91;5057868;28;20496;-76
2023/12/19 02:16:17;;;;;;;6.80;4.63;;;0.70;99.90;;;1.17;100.00;99288.44;5057853;28;20478;-76
2023/12/19 02:19:00;;;;;;;5.60;4.00;;;0.60;99.90;;;1.11;100.00;99291.38;5055472;28;20997;-76
2023/12/19 02:21:29;;;;;;;7.10;3.70;;;0.70;99.90;;;1.13;100.00;99284.41;5054901;28;20465;-76
2023/12/19 02:24:00;;;;;;;8.87;5.17;;;0.70;99.90;;;1.14;100.00;99286.06;5057016;28;20973;-76
2023/12/19 02:26:28;;;;;;;7.17;4.70;;;0.70;99.90;;;1.17;100.00;99272.97;5055617;28;20471;-76
2023/12/19 02:28:57;;;;;;;6.07;4.40;;;0.70;99.90;;;1.15;100.00;99266.25;5054606;28;20494;-76
2023/12/19 02:31:25;;;;;;;7.57;3.97;;;0.80;99.90;;;1.12;100.00;99269.84;5055858;28;20467;-77
2023/12/19 02:33:54;;;;;;;6.33;3.97;;;0.90;99.90;;;1.09;100.00;99259.75;5055686;28;20927;-76
2023/12/19 02:36:22;;;;;;;5.23;3.73;;;0.70;99.90;;;1.16;100.00;99265.34;5057205;28;20541;-76
2023/12/19 02:38:51;;;;;;;5.10;3.50;;;0.70;99.90;;;1.20;100.00;99264.22;5057418;28;20852;-77
2023/12/19 02:41:21;;;;;;;6.40;3.70;;;0.80;99.90;;;1.24;100.00;99261.34;5055150;28;20464;-76
2023/12/19 02:43:49;;;;;;;4.80;3.70;;;0.70;99.90;;;1.26;100.00;99254.34;5054738;28;20838;-76
2023/12/19 02:46:23;;;;;;;4.60;4.03;;;0.80;99.90;;;1.26;100.00;99259.50;5053259;28;20458;-76
2023/12/19 02:48:52;;;;;;;6.00;4.20;;;0.70;99.90;;;1.27;100.00;99260.31;5054496;28;20585;-76
2023/12/19 02:51:21;;;;;;;6.03;3.80;;;0.70;99.90;;;1.30;100.00;99245.50;5055406;28;20494;-76
2023/12/19 02:53:50;;;;;;;7.00;4.10;;;0.70;99.90;;;1.29;100.00;99243.84;5055877;28;20459;-76
2023/12/19 02:56:20;;;;;;;4.83;3.77;;;0.70;99.90;;;1.32;100.00;99241.06;5055956;28;20521;-76
2023/12/19 02:58:49;;;;;;;4.83;3.80;;;0.70;99.90;;;1.36;100.00;99239.13;5055917;28;20459;-76
2023/12/19 03:01:17;;;;;;;10.90;4.40;;;0.80;99.90;;;1.36;100.00;99224.47;5056085;28;20470;-76
2023/12/19 03:03:46;;;;;;;6.23;4.40;;;0.80;99.90;;;1.39;100.00;99213.97;5054344;28;20469;-77
2023/12/19 03:06:16;;;;;;;5.37;3.23;;;0.80;99.90;;;1.39;100.00;99206.25;5055021;28;20470;-76
2023/12/19 03:08:46;;;;;;;6.10;4.03;;;0.70;99.90;;;1.41;100.00;99217.28;5053685;28;20498;-76
2023/12/19 03:11:15;;;;;;;6.00;3.50;;;0.80;99.90;;;1.40;100.00;99207.06;5053846;28;20551;-76
2023/12/19 03:13:45;;;;;;;5.27;3.70;;;0.90;99.90;;;1.44;100.00;99203.38;5055046;28;20457;-76
2023/12/19 03:16:13;;;;;;;4.90;3.60;;;1.00;99.90;;;1.43;100.00;99204.28;5053670;28;20965;-76
2023/12/19 03:18:42;;;;;;;5.20;3.77;;;0.80;99.90;;;1.42;100.00;99203.47;5053464;28;20467;-76
2023/12/19 03:21:10;;;;;;;4.53;3.70;;;0.80;99.90;;;1.45;100.00;99190.41;5053647;28;20493;-76
2023/12/19 03:23:39;;;;;;;6.60;3.80;;;0.90;99.90;;;1.48;100.00;99177.31;5052166;28;20467;-76
2023/12/19 03:26:07;;;;;;;5.63;3.90;;;0.90;99.90;;;1.49;100.00;99184.09;5056135;28;20491;-76
2023/12/19 03:28:37;;;;;;;5.10;3.80;;;1.00;99.90;;;1.52;100.00;99175.34;5054359;28;21530;-76
2023/12/19 03:31:07;;;;;;;6.60;4.30;;;1.00;99.90;;;1.51;100.00;99169.38;5054609;28;20605;-76
2023/12/19 03:33:35;;;;;;;4.90;3.47;;;1.00;99.90;;;1.53;100.00;99161.53;5052451;28;20460;-76
2023/12/19 03:36:05;;;;;;;7.00;4.33;;;1.10;99.90;;;1.50;100.00;99167.72;5052519;28;20482;-76
2023/12/19 03:38:35;;;;;;;6.63;4.50;;;1.20;99.90;;;1.53;100.00;99162.34;5054381;28;20511;-76
2023/12/19 03:41:04;;;;;;;5.90;3.57;;;1.00;99.90;;;1.55;100.00;99159.69;5052631;28;20489;-76
2023/12/19 03:43:34;;;;;;;5.73;3.63;;;1.10;99.90;;;1.58;100.00;99161.22;5053678;28;20980;-76
2023/12/19 03:46:04;;;;;;;6.80;4.00;;;1.00;99.90;;;1.60;100.00;99159.38;5052374;28;20543;-76
2023/12/19 03:48:35;;;;;;;7.60;4.00;;;1.20;99.90;;;1.61;100.00;99146.38;5053796;28;20455;-76
2023/12/19 03:51:04;;;;;;;8.20;4.27;;;1.10;99.90;;;1.53;100.00;99162.34;5054309;28;21054;-76
2023/12/19 03:53:33;;;;;;;6.73;3.70;;;1.30;99.90;;;1.51;100.00;99171.94;5054078;28;20463;-76
2023/12/19 03:56:01;;;;;;;4.90;3.70;;;1.30;99.90;;;1.47;100.00;99175.66;5054878;28;20545;-77
2023/12/19 03:58:30;;;;;;;7.23;4.00;;;1.30;99.90;;;1.44;100.00;99182.75;5052714;28;20472;-76
2023/12/19 04:01:00;;;;;;;8.17;4.40;;;1.20;99.90;;;1.42;100.00;99185.44;5052914;28;20480;-76
2023/12/19 04:03:28;;;;;;;5.03;4.07;;;1.10;99.90;;;1.50;100.00;99178.03;5055312;28;20513;-76
2023/12/19 04:05:58;;;;;;;7.63;4.63;;;1.10;99.90;;;1.51;100.00;99179.69;5052290;28;20520;-76
2023/12/19 04:08:27;;;;;;;8.03;4.17;;;1.10;99.90;;;1.53;100.00;99170.09;5052110;28;20771;-75
2023/12/19 04:10:55;;;;;;;6.30;3.90;;;1.10;99.90;;;1.57;100.00;99169.88;5052889;28;21480;-75
2023/12/19 04:13:24;;;;;;;11.10;6.17;;;1.10;99.90;;;1.52;100.00;99168.47;5051354;28;20486;-76
2023/12/19 04:15:52;;;;;;;9.00;4.50;;;1.10;99.90;;;1.55;100.00;99158.84;5051508;28;20508;-76
2023/12/19 04:18:21;;;;;;;5.43;4.40;;;1.10;99.90;;;1.52;100.00;99168.47;5052345;28;20482;-76
2023/12/19 04:20:49;;;;;;;7.77;4.10;;;1.10;99.90;;;1.53;100.00;99158.94;5050441;28;20486;-77
2023/12/19 04:23:19;;;;;;;6.80;3.83;;;1.20;99.90;;;1.51;100.00;99171.13;5051109;28;20491;-77
2023/12/19 04:25:48;;;;;;;8.60;4.53;;;1.00;99.90;;;1.53;100.00;99164.94;5049300;28;20481;-77
2023/12/19 04:28:16;;;;;;;6.87;4.00;;;1.00;99.90;;;1.49;100.00;99152.38;5051316;28;20469;-78
2023/12/19 04:30:45;;;;;;;5.13;3.73;;;1.00;99.90;;;1.44;100.00;99155.25;5051927;28;20538;-77
2023/12/19 04:33:13;;;;;;;5.10;3.80;;;1.00;99.90;;;1.44;100.00;99160.41;5052499;28;20466;-76
2023/12/19 04:35:42;;;;;;;8.20;4.00;;;1.00;99.90;;;1.44;100.00;99157.81;5052125;28;20897;-76
2023/12/19 04:38:11;;;;;;;4.33;3.77;;;1.00;99.90;;;1.49;100.00;99153.16;5053357;28;20484;-76
2023/12/19 04:40:41;;;;;;;8.80;4.40;;;1.00;99.90;;;1.49;100.00;99154.94;5053291;28;20465;-77
2023/12/19 04:43:09;;;;;;;6.37;4.20;;;1.00;99.90;;;1.43;100.00;99148.44;5053009;28;21161;-77
2023/12/19 04:45:38;;;;;;;10.97;6.63;;;1.10;99.90;;;1.46;100.00;99153.38;5050488;28;20544;-77
2023/12/19 04:48:07;;;;;;;6.50;4.50;;;1.00;99.90;;;1.45;100.00;99158.66;5053900;28;20468;-77
2023/12/19 04:50:36;;;;;;;7.43;4.13;;;1.00;99.90;;;1.43;100.00;99145.84;5053694;28;21077;-77
2023/12/19 04:53:04;;;;;;;11.83;7.47;;;1.00;99.90;;;1.41;100.00;99150.31;5050579;28;20984;-77
2023/12/19 04:55:33;;;;;;;8.17;4.67;;;1.00;99.90;;;1.41;100.00;99132.28;5050791;28;20466;-77
2023/12/19 04:58:03;;;;;;;7.20;4.57;;;0.90;99.90;;;1.42;100.00;99136.47;5050356;28;20469;-77
2023/12/19 05:00:32;;;;;;;9.20;4.40;;;1.00;99.90;;;1.37;100.00;99130.00;5049106;28;20479;-77
2023/12/19 05:03:03;;;;;;;7.50;4.60;;;1.00;99.90;;;1.35;100.00;99145.56;5049643;28;20464;-78
2023/12/19 05:05:31;;;;;;;11.87;5.50;;;1.10;99.90;;;1.35;100.00;99135.25;5053107;28;20467;-77
2023/12/19 05:08:00;;;;;;;9.10;4.93;;;1.10;99.90;;;1.33;100.00;99152.56;5054031;28;20497;-77
2023/12/19 05:10:28;;;;;;;10.77;6.00;;;1.00;99.90;;;1.36;100.00;99144.63;5053374;28;20497;-76
2023/12/19 05:12:57;;;;;;;9.00;4.30;;;1.00;99.90;;;1.37;100.00;99138.53;5052231;28;20466;-76
2023/12/19 05:15:27;;;;;;;6.90;4.87;;;1.00;99.90;;;1.39;100.00;99157.28;5054025;28;20464;-76
2023/12/19 05:17:56;;;;;;;8.17;4.77;;;1.00;99.90;;;1.41;100.00;99155.44;5054657;28;20467;-76
2023/12/19 05:20:24;;;;;;;8.87;4.27;;;1.00;99.90;;;1.45;100.00;99151.75;5053569;28;20459;-77
2023/12/19 05:22:53;;;;;;;6.37;4.70;;;1.10;99.90;;;1.40;100.00;99153.78;5047305;28;21113;-76
2023/12/19 05:25:21;;;;;;;8.27;5.13;;;1.00;99.90;;;1.37;100.00;99138.53;5051306;28;20496;-77
2023/12/19 05:27:50;;;;;;;9.53;5.10;;;0.80;99.90;;;1.35;100.00;99143.00;5050623;28;20533;-77
2023/12/19 05:30:18;;;;;;;8.37;4.80;;;1.00;99.90;;;1.39;100.00;99131.53;5050710;28;20493;-75
2023/12/19 05:32:48;;;;;;;10.33;4.50;;;0.90;99.90;;;1.43;100.00;99135.56;5049801;28;20473;-76
2023/12/19 05:35:17;;;;;;;7.13;4.63;;;0.90;99.90;;;1.39;100.00;99125.53;5046911;28;20982;-77
2023/12/19 05:37:45;;;;;;;6.97;4.73;;;0.90;99.90;;;1.39;100.00;99131.53;5052666;28;20677;-76
2023/12/19 05:40:14;;;;;;;4.83;3.67;;;0.90;99.90;;;1.37;100.00;99123.09;5053767;28;20459;-77
2023/12/19 05:42:43;;;;;;;6.93;4.90;;;0.90;99.90;;;1.31;100.00;99118.34;5054329;28;20462;-76
2023/12/19 05:45:12;;;;;;;5.43;4.00;;;0.90;99.90;;;1.31;100.00;99128.66;5055210;28;20466;-76
2023/12/19 05:47:40;;;;;;;7.07;4.87;;;0.80;99.90;;;1.34;100.00;99132.78;5058400;28;20508;-76
2023/12/19 05:50:11;;;;;;;7.83;4.70;;;0.80;99.90;;;1.33;100.00;99126.78;5058408;28;20491;-76
2023/12/19 05:52:39;;;;;;;6.87;3.93;;;0.80;99.90;;;1.37;100.00;99117.94;5057524;28;20466;-76
2023/12/19 05:55:08;;;;;;;5.37;4.27;;;0.80;99.90;;;1.40;100.00;99110.00;5058770;28;20467;-76
2023/12/19 05:57:39;;;;;;;6.40;4.37;;;0.90;99.90;;;1.41;100.00;99109.06;5057286;28;20468;-76
2023/12/19 06:00:10;;;;;;;6.73;4.10;;;0.80;99.90;;;1.44;100.00;99118.34;5057963;28;20477;-76
2023/12/19 06:02:38;;;;;;;5.83;3.90;;;0.80;99.90;;;1.41;100.00;99116.81;5058749;28;20455;-76
2023/12/19 06:05:10;;;;;;;5.90;4.23;;;0.80;99.90;;;1.43;100.00;99116.69;5057357;28;20449;-76
2023/12/19 06:07:39;;;;;;;5.10;3.37;;;0.90;99.90;;;1.43;100.00;99106.38;5056800;28;20489;-76
2023/12/19 06:10:11;;;;;;;6.80;4.07;;;1.00;99.90;;;1.44;100.00;99136.38;5056331;28;20986;-76
2023/12/19 06:12:40;;;;;;;6.93;3.97;;;1.00;99.90;;;1.42;100.00;99128.75;5055576;28;20498;-76
2023/12/19 06:15:14;;;;;;;9.67;4.47;;;1.00;99.90;;;1.44;100.00;99123.50;5055172;28;20536;-76
2023/12/19 06:17:44;;;;;;;5.57;3.83;;;1.10;99.90;;;1.45;100.00;99131.13;5056343;28;20942;-77
2023/12/19 06:20:14;;;;;;;7.90;4.30;;;1.10;99.90;;;1.48;100.00;99118.03;5055596;28;20480;-76
2023/12/19 06:22:42;;;;;;;10.13;4.10;;;1.10;99.90;;;1.50;100.00;99123.06;5056621;28;20487;-76
2023/12/19 06:25:12;;;;;;;7.90;5.37;;;1.10;99.90;;;1.48;100.00;99120.63;5056483;28;21249;-76
2023/12/19 06:27:42;;;;;;;6.60;3.93;;;1.20;99.90;;;1.51;100.00;99123.00;5056701;28;20459;-76
2023/12/19 06:30:13;;;;;;;5.53;3.87;;;1.20;99.90;;;1.51;100.00;99112.69;5056999;28;20586;-76
2023/12/19 06:32:55;;;;;;;4.50;3.67;;;1.20;99.90;;;1.51;100.00;99111.84;5057263;28;20459;-76
2023/12/19 06:35:27;;;;;;;5.30;3.70;;;1.20;99.90;;;1.53;100.00;99103.09;5055139;28;21161;-76
2023/12/19 06:37:56;;;;;;;6.47;4.20;;;1.10;99.90;;;1.52;100.00;99100.63;5057443;28;20464;-76
2023/12/19 06:40:24;;;;;;;6.90;3.73;;;1.10;99.90;;;1.50;100.00;99102.47;5058706;28;20522;-76
2023/12/19 06:42:53;;;;;;;7.43;3.90;;;1.10;99.90;;;1.46;100.00;99088.97;5055791;28;20471;-76
2023/12/19 06:45:23;;;;;;;9.77;5.17;;;1.00;99.90;;;1.47;100.00;99100.09;5056995;28;20461;-76
2023/12/19 06:47:51;;;;;;;6.90;4.77;;;1.00;99.90;;;1.48;100.00;99089.69;5057264;28;20971;-76
2023/12/19 06:50:20;;;;;;;5.80;3.83;;;1.00;99.90;;;1.51;100.00;99075.78;5058022;28;20483;-76
2023/12/19 06:52:50;;;;;;;7.17;4.30;;;1.10;99.90;;;1.54;100.00;99078.13;5055902;28;20483;-75
2023/12/19 06:55:19;;;;;;;5.90;4.10;;;1.00;99.90;;;1.53;100.00;99077.31;5055825;28;20459;-76
2023/12/19 06:57:48;;;;;;;10.07;4.40;;;1.00;99.90;;;1.58;100.00;99083.91;5056226;28;20461;-76
2023/12/19 07:00:18;;;;;;;7.00;4.70;;;1.10;99.90;;;1.53;100.00;99082.47;5055936;28;20545;-76
2023/12/19 07:02:47;;;;;;;7.50;4.90;;;1.20;99.90;;;1.55;100.00;99079.78;5056817;28;20549;-76
2023/12/19 07:05:17;;;;;;;8.77;4.87;;;1.20;99.90;;;1.52;100.00;99077.44;5054691;28;20461;-76
2023/12/19 07:07:47;;;;;;;6.03;4.17;;;1.10;99.90;;;1.49;100.00;99072.50;5056937;28;20459;-75
2023/12/19 07:10:18;;;;;;;6.33;3.90;;;1.10;99.90;;;1.48;100.00;99063.94;5056943;28;20542;-76
2023/12/19 07:12:46;;;;;;;6.43;4.07;;;1.00;99.90;;;1.46;100.00;99065.78;5055764;28;20473;-76
2023/12/19 07:15:15;;;;;;;8.23;4.53;;;1.00;99.90;;;1.44;100.00;99059.09;5055637;28;20543;-76
2023/12/19 07:17:46;;;;;;;4.47;3.13;;;1.00;99.90;;;1.43;100.00;99065.97;5056506;28;20465;-76
2023/12/19 07:20:15;;;;;;;6.10;4.23;;;1.00;99.90;;;1.45;100.00;99063.31;5053533;28;20488;-76
2023/12/19 07:22:45;;;;;;;6.97;4.60;;;1.10;99.90;;;1.46;100.00;99055.47;5055764;28;20471;-76
2023/12/19 07:25:14;;;;;;;5.93;4.17;;;1.00;99.90;;;1.43;100.00;99060.00;5054312;28;20502;-76
2023/12/19 07:27:45;;;;;;;9.13;4.13;;;0.90;99.90;;;1.37;100.00;99066.41;5055261;28;20947;-76
2023/12/19 07:30:14;;;;;;;10.37;5.17;;;1.00;99.90;;;1.33;100.00;99053.84;5055005;28;20592;-76
2023/12/19 07:32:42;;;;;;;7.13;4.13;;;0.80;99.90;;;1.35;100.00;99057.97;5057367;28;20996;-77
2023/12/19 07:35:13;;;;;;;7.20;4.60;;;0.90;99.90;;;1.29;100.00;99045.50;5056836;28;20470;-76
2023/12/19 07:37:42;;;;;;;5.33;3.73;;;1.00;99.90;;;1.28;100.00;99051.59;5056917;28;20462;-76
2023/12/19 07:40:12;;;;;;;7.27;4.50;;;0.90;99.90;;;1.29;100.00;99055.78;5057594;28;20472;-76
2023/12/19 07:42:44;;;;;;;7.50;4.80;;;0.90;99.90;;;1.28;100.00;99066.22;5057999;28;20470;-76
2023/12/19 07:45:14;;;;;;;8.40;4.53;;;0.80;99.90;;;1.27;100.00;99047.34;5055212;28;20503;-76
2023/12/19 07:47:42;;;;;;;7.80;4.40;;;0.80;99.90;;;1.28;100.00;99046.44;5055497;28;20464;-76
2023/12/19 07:50:11;;;;;;;9.27;4.90;;;0.70;99.90;;;1.33;100.00;99064.97;5057140;28;21286;-77
2023/12/19 07:52:40;;;;;;;9.80;5.07;;;0.80;99.90;;;1.33;100.00;99067.53;5055248;28;20490;-76
2023/12/19 07:55:10;;;;;;;8.70;5.07;;;0.80;99.90;;;1.35;100.00;99068.28;5056474;28;20454;-76
2023/12/19 07:57:39;;;;;;;6.90;4.53;;;0.80;99.90;;;1.40;100.00;99070.53;5053182;28;20471;-76
2023/12/19 08:00:12;;;;;;;6.57;4.23;;;1.00;99.90;;;1.42;100.00;99073.84;5053691;28;20499;-77
2023/12/19 08:02:41;;;;;;;7.77;4.87;;;0.90;99.90;;;1.49;100.00;99064.75;5054617;28;20478;-76
2023/12/19 08:05:12;;;;;;;6.67;4.37;;;1.00;99.90;;;1.51;100.00;99060.31;5054177;28;20469;-76
2023/12/19 08:07:40;;;;;;;8.00;4.47;;;1.10;99.90;;;1.49;100.00;99049.31;5054121;28;20471;-76
2023/12/19 08:10:10;;;;;;;7.53;4.27;;;1.00;99.90;;;1.51;100.00;99040.53;5054942;28;20502;-76
2023/12/19 08:12:40;;;;;;;5.60;3.80;;;1.10;99.90;;;1.49;100.00;99033.84;5055235;28;20503;-76
2023/12/19 08:15:12;;;;;;;6.80;4.03;;;1.10;99.90;;;1.47;100.00;99040.84;5054348;28;21180;-76
2023/12/19 08:17:40;;;;;;;5.93;4.03;;;0.90;99.90;;;1.46;100.00;99034.84;5052930;28;20485;-76
2023/12/19 08:20:10;;;;;;;7.43;4.17;;;1.00;99.90;;;1.47;100.00;99036.50;5056147;28;20467;-76
2023/12/19 08:22:39;;;;;;;13.73;4.17;;;0.90;99.90;;;1.47;100.00;99026.19;5056264;28;21075;-77
2023/12/19 08:25:08;;;;;;;4.67;3.47;;;0.90;99.90;;;1.46;100.00;99029.69;5055105;28;20463;-76
2023/12/19 08:27:37;;;;;;;5.07;3.40;;;1.00;99.90;;;1.50;100.00;99023.41;5055120;28;20471;-76
2023/12/19 08:30:07;;;;;;;3.63;3.10;;;1.00;99.90;;;1.50;100.00;99022.59;5054775;28;20501;-75
2023/12/19 08:32:38;;;;;;;6.60;3.83;;;1.00;99.90;;;1.49;100.00;99024.31;5055239;28;20483;-75
2023/12/19 08:35:08;;;;;;;4.80;3.00;;;1.00;99.90;;;1.47;100.00;99015.06;5056030;28;20463;-76
2023/12/19 08:37:36;;;;;;;5.27;3.30;;;1.00;99.90;;;1.50;100.00;99027.72;5054260;28;20539;-75
2023/12/19 08:40:08;;;;;;;5.77;2.50;;;1.00;99.90;;;1.47;100.00;99008.16;5056324;28;20460;-76
2023/12/19 08:42:36;;;;;;;6.00;3.60;;;1.00;99.90;;;1.50;100.00;99012.28;5054615;28;20818;-76
2023/12/19 08:45:06;;;;;;;4.87;3.50;;;1.00;99.90;;;1.49;100.00;99024.31;5055139;28;20856;-77
2023/12/19 08:47:34;;;;;;;5.97;3.90;;;1.00;99.90;;;1.47;100.00;99020.22;5055832;28;20468;-76
2023/12/19 08:50:08;;;;;;;5.50;3.60;;;1.00;99.90;;;1.49;100.00;99029.47;5054260;28;20461;-76
2023/12/19 08:52:39;;;;;;;5.30;3.50;;;1.00;99.90;;;1.50;100.00;99040.63;5055135;28;20590;-76
2023/12/19 08:55:09;;;;;;;5.50;3.60;;;1.00;99.90;;;1.49;100.00;99032.06;5055069;28;20493;-76
2023/12/19 08:57:41;;;;;;;6.77;3.70;;;1.00;99.90;;;1.53;100.00;99040.41;5055534;28;20476;-77
2023/12/19 09:00:13;;;;;;;5.37;3.80;;;1.00;99.90;;;1.55;100.00;99037.72;5052569;28;20455;-76
2023/12/19 09:02:42;;;;;;;6.20;3.80;;;1.00;99.90;;;1.54;100.00;99031.75;5054850;28;20460;-75
2023/12/19 09:05:14;;;;;;;5.30;2.93;;;1.00;99.90;;;1.53;100.00;99041.22;5052616;28;21244;-76
2023/12/19 09:07:43;;;;;;;6.17;3.67;;;1.00;99.90;;;1.56;100.00;99039.38;5054910;28;20473;-76
2023/12/19 09:10:13;;;;;;;3.90;3.40;;;1.00;99.90;;;1.57;100.00;99028.13;5054572;28;20472;-75
2023/12/19 09:12:42;;;;;;;5.23;3.17;;;1.10;99.90;;;1.59;100.00;99032.28;5053118;28;20497;-76
2023/12/19 09:15:12;;;;;;;5.83;3.40;;;1.20;99.90;;;1.64;100.00;99022.44;5052932;28;21002;-76
2023/12/19 09:17:41;;;;;;;5.30;3.57;;;1.10;99.90;;;1.68;100.00;99035.94;5055227;28;20834;-76
2023/12/19 09:20:11;;;;;;;4.50;3.57;;;1.20;99.90;;;1.70;100.00;99034.09;5051918;28;21112;-76
2023/12/19 09:22:40;;;;;;;3.50;2.60;;;1.20;99.90;;;1.76;100.00;99031.09;5053698;28;20459;-76
2023/12/19 09:25:14;;;;;;;4.17;3.60;;;1.30;99.90;;;1.78;100.00;99024.88;5053593;28;20967;-76
2023/12/19 09:27:45;;;;;;;4.40;3.57;;;1.30;99.90;;;1.81;100.00;99023.84;5054681;28;20491;-76
2023/12/19 09:30:15;;;;;;;7.17;4.07;;;1.30;99.90;;;1.83;100.00;99027.97;5053506;28;20796;-76
2023/12/19 09:32:45;;;;;;;7.20;4.60;;;1.30;99.90;;;1.88;100.00;99019.91;5055647;28;20910;-76
2023/12/19 09:35:15;;;;;;;5.90;3.60;;;1.40;99.90;;;1.89;100.00;99026.72;5053453;28;20521;-76
2023/12/19 09:37:46;;;;;;;5.53;3.77;;;1.40;99.90;;;1.87;100.00;99018.28;5051860;28;20879;-76
2023/12/19 09:40:17;;;;;;;5.70;3.83;;;1.50;99.90;;;1.84;100.00;99024.44;5054040;28;20463;-76
2023/12/19 09:42:46;;;;;;;6.13;3.60;;;1.40;99.90;;;1.88;100.00;99019.91;5053669;28;20467;-76
2023/12/19 09:45:15;;;;;;;5.43;4.10;;;1.40;99.90;;;1.88;100.00;99005.25;5052120;28;20468;-76
2023/12/19 09:47:59;;;;;;;8.30;4.40;;;1.40;99.90;;;1.95;100.00;99000.47;5053705;28;20504;-76
2023/12/19 09:50:31;;;;;;;10.10;4.70;;;1.50;99.90;;;1.92;100.00;98995.53;5054669;28;20456;-76
2023/12/19 09:53:01;;;;;;;5.70;3.87;;;1.40;99.90;;;1.96;100.00;98984.09;5053535;28;20953;-76
2023/12/19 09:55:30;;;;;;;7.40;3.93;;;1.50;99.90;;;1.97;100.00;98993.47;5053550;28;20460;-77
2023/12/19 09:58:02;;;;;;;6.93;4.17;;;1.50;99.90;;;2.02;100.00;98991.38;5054592;28;20471;-75
2023/12/19 10:00:36;;;;;;;7.20;4.23;;;1.40;99.90;;;2.07;100.00;98989.31;5054352;28;21047;-76
2023/12/19 10:03:06;;;;;;;6.67;3.63;;;1.60;99.90;;;2.01;100.00;98987.16;5052771;28;20480;-76
2023/12/19 10:05:36;;;;;;;6.07;3.90;;;1.70;99.90;;;1.99;100.00;98983.88;5053886;28;20471;-76
2023/12/19 10:08:06;;;;;;;5.27;3.63;;;1.60;99.90;;;2.00;100.00;98973.44;5053091;28;20583;-77
2023/12/19 10:10:52;;;;;;;7.77;4.43;;;1.50;99.90;;;2.08;100.00;98964.34;5052586;28;20486;-76
2023/12/19 10:13:28;;;;;;;7.90;4.23;;;1.60;99.90;;;2.10;100.00;98963.28;5051305;28;20500;-76
2023/12/19 10:16:06;;;;;;;5.50;3.50;;;1.60;99.90;;;2.11;100.00;98958.94;5053325;28;20467;-75
2023/12/19 10:18:57;;;;;;;9.40;4.13;;;1.50;99.90;;;2.12;100.00;98948.50;5054876;28;20821;-76
2023/12/19 10:21:28;;;;;;;5.90;3.60;;;1.60;99.90;;;2.18;100.00;98948.09;5053445;28;20468;-76
2023/12/19 10:24:09;;;;;;;5.30;3.70;;;1.80;99.90;;;2.22;100.00;98944.31;5052293;28;20619;-75
2023/12/19 10:26:38;;;;;;;5.10;3.20;;;1.80;99.90;;;2.26;100.00;98938.00;5052368;28;20457;-76
2023/12/19 10:29:07;;;;;;;5.77;4.07;;;1.80;99.90;;;2.26;100.00;98938.00;5053223;28;20479;-76
2023/12/19 10:31:36;;;;;;;6.33;4.10;;;1.70;99.90;;;2.30;100.00;98923.13;5054057;28;20456;-76
2023/12/19 10:34:06;;;;;;;7.30;4.50;;;1.80;99.90;;;2.29;100.00;98932.63;5055865;28;21076;-76
2023/12/19 10:36:36;;;;;;;8.13;4.00;;;1.70;99.90;;;2.33;100.00;98941.78;5056379;28;20461;-75